createdAt,value
2018-03-06T00:01:57.022Z,3.77
2018-03-06T00:04:24.358Z,5.20
2018-03-06T00:06:51.698Z,3.83
2018-03-06T00:09:19.045Z,3.57
2018-03-06T00:11:49.577Z,4.47
2018-03-06T00:14:17.024Z,4.00
2018-03-06T00:16:44.709Z,4.33
2018-03-06T00:19:12.065Z,3.63
2018-03-06T00:21:39.357Z,3.97
2018-03-06T00:24:06.691Z,4.00
2018-03-06T00:26:38.586Z,3.80
2018-03-06T00:29:05.919Z,4.13
2018-03-06T00:31:33.248Z,3.57
2018-03-06T00:34:00.536Z,5.17
2018-03-06T00:36:27.855Z,4.23
2018-03-06T00:38:55.524Z,3.50
2018-03-06T00:41:22.786Z,3.60
2018-03-06T00:43:55.108Z,4.23
2018-03-06T00:46:22.814Z,4.43
2018-03-06T00:48:58.718Z,5.93
2018-03-06T00:51:26.034Z,4.07
2018-03-06T00:53:53.346Z,3.67
2018-03-06T00:56:21.052Z,3.20
2018-03-06T00:58:48.386Z,3.63
2018-03-06T01:01:15.667Z,3.47
2018-03-06T01:03:42.971Z,3.63
2018-03-06T01:06:10.321Z,4.20
2018-03-06T01:08:37.621Z,3.93
2018-03-06T01:11:04.991Z,3.90
2018-03-06T01:13:32.316Z,4.63
2018-03-06T01:15:59.623Z,5.97
2018-03-06T01:18:26.927Z,4.37
2018-03-06T01:20:54.221Z,3.97
2018-03-06T01:23:21.538Z,4.57
2018-03-06T01:25:48.841Z,4.27
2018-03-06T01:28:16.138Z,4.77
2018-03-06T01:30:48.183Z,4.43
2018-03-06T01:33:15.899Z,3.83
2018-03-06T01:35:43.196Z,4.53
2018-03-06T01:38:10.884Z,4.23
2018-03-06T01:40:38.173Z,3.90
2018-03-06T01:43:05.476Z,4.47
2018-03-06T01:45:33.240Z,3.83
2018-03-06T01:48:00.973Z,4.00
2018-03-06T01:50:28.369Z,3.77
2018-03-06T01:52:55.657Z,4.57
2018-03-06T01:55:22.955Z,5.20
2018-03-06T01:57:50.260Z,3.97
2018-03-06T02:00:17.570Z,4.80
2018-03-06T02:02:45.275Z,4.27
2018-03-06T02:05:12.551Z,3.77
2018-03-06T02:07:39.829Z,4.60
2018-03-06T02:10:07.260Z,4.70
2018-03-06T02:12:34.559Z,4.30
2018-03-06T02:15:05.487Z,3.10
2018-03-06T02:17:33.159Z,3.63
2018-03-06T02:20:00.896Z,4.80
2018-03-06T02:22:28.185Z,5.17
2018-03-06T02:24:55.484Z,4.40
2018-03-06T02:27:22.866Z,6.63
2018-03-06T02:29:50.560Z,3.50
2018-03-06T02:32:17.848Z,4.13
2018-03-06T02:34:45.157Z,3.73
2018-03-06T02:37:12.475Z,3.80
2018-03-06T02:39:39.757Z,3.73
2018-03-06T02:42:07.470Z,4.20
2018-03-06T02:44:40.764Z,4.07
2018-03-06T02:47:08.145Z,4.53
2018-03-06T02:49:35.448Z,5.00
2018-03-06T02:52:04.811Z,7.10
2018-03-06T02:54:32.138Z,3.43
2018-03-06T02:56:59.493Z,4.27
2018-03-06T02:59:33.144Z,4.47
2018-03-06T03:02:06.423Z,4.30
2018-03-06T03:04:34.155Z,3.40
2018-03-06T03:07:01.563Z,4.10
2018-03-06T03:09:29.122Z,4.13
2018-03-06T03:11:56.614Z,6.10
2018-03-06T03:14:23.962Z,3.87
2018-03-06T03:16:51.308Z,3.87
2018-03-06T03:19:18.741Z,3.50
2018-03-06T03:21:46.501Z,3.93
2018-03-06T03:24:14.226Z,5.73
2018-03-06T03:26:41.564Z,5.47
2018-03-06T03:29:08.970Z,5.20
2018-03-06T03:31:41.135Z,8.87
2018-03-06T03:34:08.863Z,5.57
2018-03-06T03:36:36.234Z,7.43
2018-03-06T03:39:03.567Z,6.13
2018-03-06T03:41:30.943Z,6.80
2018-03-06T03:43:58.317Z,8.53
2018-03-06T03:46:26.098Z,7.50
2018-03-06T03:48:53.443Z,5.37
2018-03-06T03:51:20.795Z,6.30
2018-03-06T03:53:49.519Z,8.43
2018-03-06T03:56:16.862Z,6.90
2018-03-06T03:58:44.199Z,4.70
2018-03-06T04:01:11.947Z,5.47
2018-03-06T04:03:39.302Z,4.63
2018-03-06T04:06:06.664Z,5.03
2018-03-06T04:08:34.039Z,9.50
2018-03-06T04:11:01.413Z,5.17
2018-03-06T04:13:28.730Z,5.80
2018-03-06T04:15:56.094Z,8.43
2018-03-06T04:18:28.127Z,8.50
2018-03-06T04:20:55.450Z,9.13
2018-03-06T04:23:22.778Z,7.20
2018-03-06T04:26:02.620Z,6.00
2018-03-06T04:28:30.389Z,9.03
2018-03-06T04:30:57.720Z,4.40
2018-03-06T04:33:25.102Z,8.40
2018-03-06T04:35:52.452Z,4.47
2018-03-06T04:38:20.217Z,8.77
2018-03-06T04:40:47.574Z,9.20
2018-03-06T04:43:14.951Z,7.43
2018-03-06T04:45:42.274Z,6.33
2018-03-06T04:48:10.042Z,4.70
2018-03-06T04:50:37.766Z,7.87
2018-03-06T04:53:05.257Z,6.60
2018-03-06T04:55:33.026Z,4.70
2018-03-06T04:58:00.397Z,5.23
2018-03-06T05:00:27.762Z,5.67
2018-03-06T05:02:55.086Z,8.70
2018-03-06T05:05:22.838Z,9.03
2018-03-06T05:07:50.174Z,7.20
2018-03-06T05:10:17.536Z,6.07
2018-03-06T05:12:44.902Z,6.03
2018-03-06T05:15:12.246Z,10.40
2018-03-06T05:17:39.624Z,7.30
2018-03-06T05:20:07.383Z,6.20
2018-03-06T05:22:34.729Z,8.43
2018-03-06T05:25:02.147Z,8.30
2018-03-06T05:27:29.490Z,8.80
2018-03-06T05:29:56.784Z,9.20
2018-03-06T05:32:24.054Z,8.43
2018-03-06T05:37:52.980Z,7.93
2018-03-06T05:40:20.654Z,8.63
2018-03-06T05:42:48.375Z,9.40
2018-03-06T05:45:15.697Z,7.87
2018-03-06T05:47:43.002Z,6.97
2018-03-06T05:50:10.331Z,9.33
2018-03-06T05:52:37.602Z,8.33
2018-03-06T05:55:04.897Z,6.03
2018-03-06T05:57:32.214Z,8.77
2018-03-06T05:59:59.544Z,10.60
2018-03-06T06:02:26.856Z,10.80
2018-03-06T06:04:54.222Z,6.63
2018-03-06T06:07:22.512Z,8.47
2018-03-06T06:09:49.828Z,10.43
2018-03-06T06:12:17.536Z,11.97
2018-03-06T06:15:02.480Z,5.83
2018-03-06T06:17:30.216Z,7.77
2018-03-06T06:19:57.561Z,10.47
2018-03-06T06:22:24.890Z,11.77
2018-03-06T06:24:53.208Z,6.13
2018-03-06T06:27:44.087Z,8.60
2018-03-06T06:30:11.427Z,11.63
2018-03-06T06:35:42.555Z,10.90
2018-03-06T06:38:10.281Z,14.83
2018-03-06T06:40:37.653Z,11.80
2018-03-06T06:43:07.057Z,7.50
2018-03-06T06:45:34.757Z,7.33
2018-03-06T06:48:02.201Z,10.17
2018-03-06T06:50:29.512Z,12.13
2018-03-06T06:52:56.869Z,10.30
2018-03-06T06:55:24.222Z,12.00
2018-03-06T06:57:51.592Z,6.67
2018-03-06T07:00:18.951Z,8.10
2018-03-06T07:02:46.260Z,7.03
2018-03-06T07:05:13.577Z,7.33
2018-03-06T07:07:41.356Z,10.60
2018-03-06T07:10:09.100Z,12.07
2018-03-06T07:12:36.821Z,10.00
2018-03-06T07:15:04.312Z,9.60
2018-03-06T07:17:31.630Z,9.77
2018-03-06T07:19:58.946Z,9.50
2018-03-06T07:22:32.384Z,9.73
2018-03-06T07:24:59.782Z,7.93
2018-03-06T07:27:27.199Z,14.33
2018-03-06T07:29:54.682Z,13.93
2018-03-06T07:32:21.986Z,16.87
2018-03-06T07:34:49.318Z,11.10
2018-03-06T07:37:17.052Z,14.97
2018-03-06T07:39:44.424Z,12.60
2018-03-06T07:42:12.157Z,19.97
2018-03-06T07:44:39.478Z,15.40
2018-03-06T07:47:06.830Z,14.13
2018-03-06T07:49:34.221Z,10.60
2018-03-06T07:52:01.568Z,15.43
2018-03-06T07:54:28.864Z,14.83
2018-03-06T07:56:56.577Z,13.80
2018-03-06T07:59:23.989Z,13.83
2018-03-06T08:01:51.731Z,15.10
2018-03-06T08:04:19.077Z,11.80
2018-03-06T08:06:46.511Z,14.40
2018-03-06T08:09:13.845Z,14.27
2018-03-06T08:11:41.146Z,18.77
2018-03-06T08:14:08.529Z,15.83
2018-03-06T08:16:36.237Z,18.27
2018-03-06T08:19:05.502Z,19.10
2018-03-06T08:21:33.232Z,16.90
2018-03-06T08:24:00.509Z,20.73
2018-03-06T08:26:28.210Z,22.07
2018-03-06T08:28:55.568Z,21.63
2018-03-06T08:31:22.844Z,19.60
2018-03-06T08:33:50.276Z,14.57
2018-03-06T08:36:17.580Z,16.03
2018-03-06T08:38:44.866Z,15.23
2018-03-06T08:41:12.168Z,20.17
2018-03-06T08:43:39.434Z,22.23
2018-03-06T08:46:06.790Z,22.87
2018-03-06T08:48:34.090Z,19.67
2018-03-06T08:51:19.195Z,19.00
2018-03-06T08:53:46.458Z,23.10
2018-03-06T08:56:13.727Z,22.30
2018-03-06T08:58:41.009Z,22.10
2018-03-06T09:01:10.263Z,18.33
2018-03-06T09:03:37.629Z,16.27
2018-03-06T09:06:04.888Z,17.50
2018-03-06T09:08:32.583Z,20.97
2018-03-06T09:10:59.901Z,18.47
2018-03-06T09:13:27.232Z,16.70
2018-03-06T09:15:54.520Z,17.73
2018-03-06T09:18:22.190Z,20.73
2018-03-06T09:20:49.896Z,17.27
2018-03-06T09:23:17.205Z,17.53
2018-03-06T09:25:44.896Z,16.27
2018-03-06T09:28:12.222Z,16.13
2018-03-06T09:30:39.922Z,19.17
2018-03-06T09:33:07.244Z,18.03
2018-03-06T09:35:34.928Z,20.27
2018-03-06T09:38:02.282Z,16.40
2018-03-06T09:40:29.553Z,16.33
2018-03-06T09:42:56.840Z,19.33
2018-03-06T09:45:24.154Z,17.60
2018-03-06T09:47:51.481Z,16.77
2018-03-06T09:50:18.810Z,18.97
2018-03-06T09:52:46.096Z,17.77
2018-03-06T09:55:16.859Z,19.87
2018-03-06T09:58:01.276Z,20.10
2018-03-06T10:00:35.357Z,23.40
2018-03-06T10:03:02.707Z,14.20
2018-03-06T10:05:29.995Z,20.70
2018-03-06T10:07:57.699Z,19.20
2018-03-06T10:10:25.034Z,20.73
2018-03-06T10:12:52.327Z,19.27
2018-03-06T10:15:20.044Z,19.83
2018-03-06T10:17:47.376Z,21.03
2018-03-06T10:20:15.078Z,19.27
2018-03-06T10:22:42.425Z,20.53
2018-03-06T10:25:09.764Z,23.50
2018-03-06T10:27:37.570Z,20.40
2018-03-06T10:30:04.893Z,19.10
2018-03-06T10:32:32.210Z,19.90
2018-03-06T10:34:59.610Z,19.70
2018-03-06T10:37:26.948Z,21.27
2018-03-06T10:39:54.675Z,21.37
2018-03-06T10:42:22.006Z,23.60
2018-03-06T10:44:49.390Z,23.03
2018-03-06T10:47:16.729Z,21.77
2018-03-06T10:49:44.085Z,21.27
2018-03-06T10:52:12.412Z,22.97
2018-03-06T10:54:39.716Z,20.87
2018-03-06T10:57:07.054Z,22.80
2018-03-06T10:59:34.417Z,21.50
2018-03-06T11:02:03.575Z,19.27
2018-03-06T11:07:04.748Z,17.83
2018-03-06T11:09:32.018Z,18.07
2018-03-06T11:11:59.308Z,22.67
2018-03-06T11:14:26.666Z,14.83
2018-03-06T11:16:53.949Z,22.33
2018-03-06T11:19:31.896Z,23.40
2018-03-06T11:21:59.197Z,23.00
2018-03-06T11:24:26.896Z,21.10
2018-03-06T11:26:54.590Z,24.00
2018-03-06T11:29:21.911Z,22.27
2018-03-06T11:31:49.210Z,19.03
2018-03-06T11:34:16.516Z,22.90
2018-03-06T11:36:43.809Z,23.13
2018-03-06T11:39:11.130Z,22.87
2018-03-06T11:41:52.632Z,24.67
2018-03-06T11:44:19.977Z,20.70
2018-03-06T11:46:47.259Z,21.30
2018-03-06T11:49:14.550Z,20.60
2018-03-06T11:51:41.933Z,22.60
2018-03-06T11:54:09.259Z,21.37
2018-03-06T11:56:36.961Z,22.50
2018-03-06T11:59:04.253Z,22.10
2018-03-06T12:01:31.597Z,24.83
2018-03-06T12:03:58.907Z,24.57
2018-03-06T12:06:26.196Z,15.50
2018-03-06T12:08:53.570Z,21.63
2018-03-06T12:11:33.894Z,19.93
2018-03-06T12:14:01.210Z,19.80
2018-03-06T12:16:28.914Z,19.67
2018-03-06T12:18:56.194Z,20.87
2018-03-06T12:21:23.539Z,22.17
2018-03-06T12:23:50.789Z,15.83
2018-03-06T12:26:18.077Z,19.50
2018-03-06T12:28:45.393Z,20.40
2018-03-06T12:31:12.754Z,19.13
2018-03-06T12:33:40.064Z,19.00
2018-03-06T12:36:07.406Z,19.13
2018-03-06T12:38:34.677Z,21.33
2018-03-06T12:41:01.983Z,20.17
2018-03-06T12:43:29.728Z,19.07
2018-03-06T12:45:57.004Z,20.50
2018-03-06T12:48:24.280Z,21.00
2018-03-06T12:50:51.578Z,23.20
2018-03-06T12:53:18.911Z,20.17
2018-03-06T12:55:46.240Z,19.00
2018-03-06T12:58:13.930Z,17.20
2018-03-06T13:00:41.222Z,20.50
2018-03-06T13:03:08.564Z,20.33
2018-03-06T13:05:35.879Z,17.20
2018-03-06T13:08:03.199Z,17.20
2018-03-06T13:10:30.508Z,18.53
2018-03-06T13:12:57.847Z,17.27
2018-03-06T13:15:25.570Z,16.67
2018-03-06T13:17:52.883Z,13.93
2018-03-06T13:20:20.172Z,21.20
2018-03-06T13:22:47.521Z,17.80
2018-03-06T13:25:19.080Z,16.87
2018-03-06T13:27:46.436Z,14.93
2018-03-06T13:30:13.719Z,17.10
2018-03-06T13:32:41.471Z,16.20
2018-03-06T13:35:08.794Z,18.60
2018-03-06T13:37:36.066Z,20.07
2018-03-06T13:40:03.380Z,16.80
2018-03-06T13:42:30.659Z,18.90
2018-03-06T13:44:58.007Z,20.63
2018-03-06T13:47:25.360Z,18.80
2018-03-06T13:49:52.640Z,21.57
2018-03-06T13:52:19.941Z,19.83
2018-03-06T13:54:47.236Z,21.33
2018-03-06T13:57:14.544Z,18.17
2018-03-06T13:59:41.920Z,18.37
2018-03-06T14:02:09.239Z,16.53
2018-03-06T14:04:57.288Z,17.00
2018-03-06T14:07:24.573Z,18.90
2018-03-06T14:09:51.886Z,21.40
2018-03-06T14:12:19.605Z,18.43
2018-03-06T14:14:46.904Z,18.90
2018-03-06T14:17:14.573Z,17.33
2018-03-06T14:19:41.904Z,18.50
2018-03-06T14:22:09.182Z,18.47
2018-03-06T14:24:36.493Z,21.20
2018-03-06T14:27:09.537Z,16.63
2018-03-06T14:29:36.820Z,19.20
2018-03-06T14:32:04.114Z,19.47
2018-03-06T14:34:31.833Z,19.30
2018-03-06T14:36:59.115Z,20.00
2018-03-06T14:39:26.405Z,18.93
2018-03-06T14:41:53.748Z,18.60
2018-03-06T14:44:21.447Z,18.33
2018-03-06T14:46:48.739Z,18.90
2018-03-06T14:49:16.060Z,19.70
2018-03-06T14:51:43.347Z,16.83
2018-03-06T14:54:10.636Z,17.57
2018-03-06T14:56:37.955Z,19.13
2018-03-06T14:59:05.281Z,18.20
2018-03-06T15:01:32.828Z,19.73
2018-03-06T15:04:00.192Z,18.50
2018-03-06T15:06:27.491Z,18.03
2018-03-06T15:08:55.331Z,16.80
2018-03-06T15:11:22.838Z,16.30
2018-03-06T15:13:54.334Z,18.00
2018-03-06T15:16:21.616Z,16.63
2018-03-06T15:18:48.948Z,17.40
2018-03-06T15:21:16.251Z,16.43
2018-03-06T15:23:43.517Z,14.73
2018-03-06T15:26:10.844Z,17.63
2018-03-06T15:28:38.402Z,17.13
2018-03-06T15:31:06.126Z,16.83
2018-03-06T15:33:33.450Z,17.60
2018-03-06T15:36:00.751Z,17.43
2018-03-06T15:38:28.065Z,17.90
2018-03-06T15:40:55.382Z,18.73
2018-03-06T15:43:23.067Z,20.53
2018-03-06T15:45:50.360Z,17.97
2018-03-06T15:48:17.666Z,16.80
2018-03-06T15:50:44.999Z,16.43
2018-03-06T15:53:12.338Z,17.40
2018-03-06T15:55:39.642Z,16.60
2018-03-06T15:58:06.923Z,15.53
2018-03-06T16:00:34.349Z,15.83
2018-03-06T16:03:01.675Z,15.80
2018-03-06T16:05:28.941Z,15.83
2018-03-06T16:07:56.630Z,15.50
2018-03-06T16:10:23.918Z,15.23
2018-03-06T16:12:51.220Z,15.57
2018-03-06T16:15:18.551Z,15.00
2018-03-06T16:17:45.845Z,16.00
2018-03-06T16:20:13.142Z,15.50
2018-03-06T16:22:40.422Z,15.30
2018-03-06T16:25:08.124Z,16.03
2018-03-06T16:27:35.497Z,13.70
2018-03-06T16:30:02.798Z,14.83
2018-03-06T16:32:30.461Z,15.03
2018-03-06T16:34:58.158Z,14.50
2018-03-06T16:37:25.494Z,16.93
2018-03-06T16:39:52.769Z,15.40
2018-03-06T16:42:20.081Z,16.57
2018-03-06T16:44:47.383Z,15.73
2018-03-06T16:47:14.728Z,15.10
2018-03-06T16:49:42.054Z,15.07
2018-03-06T16:52:09.720Z,15.53
2018-03-06T16:54:37.993Z,16.00
2018-03-06T16:57:05.693Z,15.67
2018-03-06T16:59:33.013Z,16.00
2018-03-06T17:02:00.748Z,14.97
2018-03-06T17:04:28.095Z,15.27
2018-03-06T17:06:55.442Z,16.87
2018-03-06T17:09:22.791Z,16.50
2018-03-06T17:11:50.253Z,16.23
2018-03-06T17:14:17.593Z,17.83
2018-03-06T17:16:44.969Z,16.37
2018-03-06T17:19:12.297Z,17.43
2018-03-06T17:21:39.690Z,17.30
2018-03-06T17:24:07.013Z,18.10
2018-03-06T17:26:34.414Z,18.77
2018-03-06T17:29:02.143Z,17.77
2018-03-06T17:31:29.525Z,16.50
2018-03-06T17:34:10.863Z,19.13
2018-03-06T17:36:38.233Z,18.37
2018-03-06T17:39:05.583Z,19.63
2018-03-06T17:41:32.907Z,18.70
2018-03-06T17:44:00.280Z,16.80
2018-03-06T17:46:27.644Z,17.23
2018-03-06T17:48:56.031Z,18.33
2018-03-06T17:51:23.387Z,18.40
2018-03-06T17:53:50.694Z,16.67
2018-03-06T17:56:18.037Z,18.03
2018-03-06T17:58:45.808Z,18.17
2018-03-06T18:01:13.549Z,17.93
2018-03-06T18:03:45.655Z,16.83
2018-03-06T18:06:13.003Z,20.27
2018-03-06T18:08:40.357Z,19.20
2018-03-06T18:11:14.423Z,18.27
2018-03-06T18:13:42.163Z,18.17
2018-03-06T18:16:09.507Z,16.87
2018-03-06T18:18:37.789Z,18.57
2018-03-06T18:21:05.177Z,18.80
2018-03-06T18:23:32.653Z,18.50
2018-03-06T18:26:04.573Z,17.80
2018-03-06T18:28:31.884Z,18.03
2018-03-06T18:30:59.694Z,18.63
2018-03-06T18:33:38.126Z,18.67
2018-03-06T18:36:05.476Z,19.00
2018-03-06T18:38:32.813Z,19.90
2018-03-06T18:41:00.173Z,19.57
2018-03-06T18:43:27.535Z,18.27
2018-03-06T18:45:54.912Z,18.97
2018-03-06T18:48:22.283Z,19.77
2018-03-06T18:51:02.541Z,17.57
2018-03-06T18:53:29.896Z,17.40
2018-03-06T18:55:57.213Z,19.87
2018-03-06T18:58:29.125Z,18.53
2018-03-06T19:01:08.815Z,22.83
2018-03-06T19:03:48.048Z,18.73
2018-03-06T19:06:23.345Z,19.73
2018-03-06T19:08:51.098Z,19.97
2018-03-06T19:11:18.839Z,20.93
2018-03-06T19:13:46.241Z,17.83
2018-03-06T19:16:13.628Z,19.97
2018-03-06T19:18:40.945Z,19.57
2018-03-06T19:21:08.252Z,19.27
2018-03-06T19:23:35.608Z,20.83
2018-03-06T19:26:02.909Z,21.23
2018-03-06T19:28:30.661Z,20.50
2018-03-06T19:30:58.560Z,19.93
2018-03-06T19:33:25.979Z,19.70
2018-03-06T19:35:53.312Z,20.40
2018-03-06T19:38:24.204Z,18.43
2018-03-06T19:40:53.485Z,19.77
2018-03-06T19:43:21.450Z,20.37
2018-03-06T19:45:49.202Z,18.10
2018-03-06T19:48:16.567Z,18.00
2018-03-06T19:50:44.367Z,18.60
2018-03-06T19:53:11.714Z,17.70
2018-03-06T19:55:39.053Z,18.30
2018-03-06T19:58:06.785Z,20.23
2018-03-06T20:00:34.136Z,18.17
2018-03-06T20:03:08.746Z,19.03
2018-03-06T20:05:36.534Z,16.43
2018-03-06T20:08:05.942Z,21.57
2018-03-06T20:10:33.365Z,17.20
2018-03-06T20:13:02.649Z,21.83
2018-03-06T20:15:35.092Z,18.37
2018-03-06T20:18:10.586Z,19.20
2018-03-06T20:20:37.956Z,18.90
2018-03-06T20:23:05.261Z,18.73
2018-03-06T20:25:38.166Z,17.63
2018-03-06T20:28:05.535Z,19.63
2018-03-06T20:30:41.644Z,17.43
2018-03-06T20:33:17.712Z,19.20
2018-03-06T20:35:45.475Z,18.93
2018-03-06T20:38:18.778Z,18.17
2018-03-06T20:40:52.815Z,18.07
2018-03-06T20:43:35.304Z,18.50
2018-03-06T20:46:08.370Z,18.70
2018-03-06T20:48:37.722Z,17.97
2018-03-06T20:51:05.121Z,19.17
2018-03-06T20:53:37.983Z,17.60
2018-03-06T20:56:12.461Z,18.73
2018-03-06T20:58:40.126Z,17.63
2018-03-06T21:01:07.540Z,17.00
2018-03-06T21:06:35.229Z,18.17
2018-03-06T21:09:02.586Z,20.87
2018-03-06T21:11:30.345Z,17.77
2018-03-06T21:13:57.718Z,22.47
2018-03-06T21:16:33.172Z,18.20
2018-03-06T21:19:00.889Z,16.93
2018-03-06T21:21:28.265Z,18.33
2018-03-06T21:23:55.721Z,18.67
2018-03-06T21:26:27.535Z,18.03
2018-03-06T21:29:11.920Z,18.87
2018-03-06T21:31:43.287Z,16.07
2018-03-06T21:34:10.712Z,15.87
2018-03-06T21:36:38.027Z,17.77
2018-03-06T21:42:05.218Z,16.60
2018-03-06T21:44:36.009Z,18.23
2018-03-06T21:47:10.751Z,18.10
2018-03-06T21:49:38.443Z,16.33
2018-03-06T21:52:05.853Z,16.77
2018-03-06T21:54:33.219Z,18.53
2018-03-06T21:57:00.968Z,17.27
2018-03-06T21:59:28.283Z,16.80
2018-03-06T22:01:55.666Z,17.10
2018-03-06T22:04:23.022Z,18.77
2018-03-06T22:06:50.317Z,18.40
2018-03-06T22:09:18.084Z,17.47
2018-03-06T22:11:45.429Z,17.43
2018-03-06T22:14:12.814Z,16.43
2018-03-06T22:16:40.146Z,16.83
2018-03-06T22:19:07.500Z,19.30
2018-03-06T22:21:36.216Z,17.63
2018-03-06T22:24:05.551Z,17.27
2018-03-06T22:26:32.911Z,16.90
2018-03-06T22:29:00.240Z,18.40
2018-03-06T22:31:27.580Z,18.27
2018-03-06T22:33:54.963Z,16.97
2018-03-06T22:36:22.288Z,17.97
2018-03-06T22:38:49.665Z,18.30
2018-03-06T22:41:20.456Z,17.60
2018-03-06T22:43:48.179Z,18.23
2018-03-06T22:46:15.565Z,16.83
2018-03-06T22:48:43.359Z,17.87
2018-03-06T22:51:10.671Z,18.03
2018-03-06T22:53:37.990Z,16.20
2018-03-06T22:56:08.559Z,15.80
2018-03-06T22:58:36.267Z,17.77
2018-03-06T23:01:03.598Z,16.30
2018-03-06T23:03:31.288Z,17.30
2018-03-06T23:05:58.562Z,16.43
2018-03-06T23:08:25.906Z,16.53
2018-03-06T23:11:01.289Z,17.80
2018-03-06T23:13:29.621Z,16.47
2018-03-06T23:15:56.906Z,16.60
2018-03-06T23:18:24.241Z,16.27
2018-03-06T23:20:51.543Z,15.67
2018-03-06T23:23:19.330Z,16.60
2018-03-06T23:25:52.852Z,17.53
2018-03-06T23:28:20.175Z,17.03
2018-03-06T23:30:47.460Z,18.27
2018-03-06T23:33:16.714Z,17.13
2018-03-06T23:35:44.443Z,17.47
2018-03-06T23:38:11.772Z,18.17
2018-03-06T23:40:39.070Z,17.40
2018-03-06T23:43:06.356Z,18.07
2018-03-06T23:45:33.665Z,17.87
2018-03-06T23:48:00.950Z,16.20
2018-03-06T23:50:28.615Z,17.67
2018-03-06T23:52:58.402Z,18.37
2018-03-06T23:55:25.709Z,17.37
2018-03-06T23:57:52.981Z,18.37
